Historyczne dane pomiarowe

Dodano dane terminowe – wersja testowa.

Dane z okresu 1951-2019

Wersja bazy: 1.34 [2019-03-16, lista zmian], aktualizacja planowana na 2019-04-15

Dane meteo z obszaru Polski uzyskane na podstawie danych udostępnionych przez Instytut Meteorologii i Gospodarki Wodnej – Państwowy Instytut Badawczy.

 

Wybierz Datę:    

       

TemperaturaWilgotnośćWiatrCiśnienieOpadyŚniegCzas trwania zjawisk
 Stacja t tx tn tng RH VA  wxwx mslp ppp RRR   cm mm wxwxwxwxwxwxwx
1962-02-25 -5.2 -3.4 -9.4- 87.0- 7.7 5.3---- 4.7-- 12---------
1962-02-26 -3.4 -1.6 -4.2- 89.3- 8.0 4.3---- 0.1-- 18---------
1962-02-27 -5.5 -3.5 -6.3- 83.5- 8.0 3.7---- 0.0-- 18---------
1962-02-28 -7.5 -4.6-11.6- 84.3- 6.7 2.3---- 0.0-- 17---------
1962-03-01 -6.9 -3.6-10.1- 86.8- 7.3 3.7---- 0.0-- 17---------
1962-03-02 -5.6 -4.0 -8.8- 82.5- 8.0 1.3---- 0.0-- 17---------
1962-03-03 -1.9 0.6 -5.4- 80.3- 5.3 1.0---- 0.0-- 17---------
1962-03-04 2.0 5.4 -2.2- 88.8- 7.7 1.7---- 3.8-- 17---------
1962-03-05 1.7 2.3 0.7- 99.0- 8.0 2.3---- 5.9-- 10---------
1962-03-06 1.4 6.7 -0.6- 88.3- 8.0 5.7---- 1.6-- 7---------
1962-03-07 -2.1 0.3 -2.8- 81.0- 5.0 4.7---- 0.0-- 4---------
1962-03-08 -2.2 0.7 -6.7- 83.5- 1.7 2.3---- 0.0------------
1962-03-09 -3.5 -0.1 -5.0- 79.3- 4.7 2.0---- 0.0------------
1962-03-10 -1.3 1.1 -5.5- 72.0- 6.3 6.3---- 0.0------------
1962-03-11 2.8 6.6 -1.2- 83.0- 6.7 4.0---- 0.0------------
1962-03-12 1.1 3.0 0.4- 93.5- 8.0 2.3---- 10.3------------
1962-03-13 -3.8 0.5 -5.8- 91.8- 7.3 6.3---- 1.2-- 8---------
1962-03-14 -8.1 -3.5-10.6- 84.0- 1.7 5.0---- 0.0-- 12---------
1962-03-15 -6.7 -3.3-12.4- 83.0- 8.0 1.7---- 0.0-- 12---------
1962-03-16 -6.6 -5.0 -7.6- 82.5- 8.0 9.7---- 3.3-- 12---------
1962-03-17 -5.6 -4.1 -8.0- 92.8- 8.0 8.0---- 1.0-- 20---------
1962-03-18 -6.1 -0.6 -8.1- 75.8- 1.7 4.0---- 0.0-- 23---------
1962-03-19 -5.5 -0.6-14.4- 73.8- 4.7 1.7---- 0.0-- 23---------
1962-03-20 -5.2 -0.1 -7.0- 68.5- 3.7 1.7---- 0.0-- 21---------
1962-03-21 -8.0 -1.7-15.5- 83.5- 0.7 2.0---- 0.0-- 18---------
1962-03-22 -4.7 -1.6-11.3- 88.0- 8.0 3.0---- 0.3-- 14---------
1962-03-23 -1.7 -0.3 -5.4- 93.3- 8.0 2.7---- 7.7-- 14---------
1962-03-24 -3.0 -0.6 -5.7- 91.8- 7.7 2.0---- 0.9-- 24---------
1962-03-25-10.7 -0.5-18.3- 82.5- 0.0 0.7---- 0.0-- 24---------
1962-03-26 -9.3 0.4-19.6- 81.3- 0.0 0.7---- 0.0-- 24---------
128.4 ms

 

Źródłem pochodzenia danych jest Instytut Meteorologii i Gospodarki Wodnej – Państwowy Instytut Badawczy. Dane Instytutu Meteorologii i Gospodarki Wodnej – Państwowego Instytutu Badawczego zostały przetworzone.

Dane źródłowe można odnaleźć na stronie https://dane.imgw.pl